Thursday, April 19, 2018, 4:04 PM CDT
Back to Local

KMCK, Mc Cook Municipal Airport

Location: Mc Cook, NE, United States Lat: 40.2
Local Time: 4:04 PM CDT (21:04 GMT) Lon: -100.583
Time Zone: US/Central Elev: 2578 ft

Show me the last for .
Show Decoded

2018-04-19 14:53 METAR KMCK 191953Z AUTO 10013G23KT 10SM CLR 15/M02 A3032 RMK AO2 SLP277
                 T01501017 =
2018-04-19 13:53 METAR KMCK 191853Z AUTO 11012G17KT 10SM CLR 13/M02 A3036 RMK AO2 SLP290
                 T01331022 =
2018-04-19 12:53 METAR KMCK 191753Z AUTO 13010G18KT 10SM CLR 12/M02 A3040 RMK AO2 SLP302
                 T01171017 10122 21056 58012 =
2018-04-19 11:53 METAR KMCK 191653Z AUTO 12008KT 10SM CLR 10/M02 A3043 RMK AO2 SLP314 T01001017 =
2018-04-19 10:53 METAR KMCK 191553Z AUTO 10SM CLR 08/M01 A3044 RMK AO2 SLP318 T00781011 =
2018-04-19 09:53 METAR KMCK 191453Z AUTO 10006KT 10SM CLR 05/M01 A3044 RMK AO2 SLP320 T00501006
                 50011 =
2018-04-19 08:53 METAR KMCK 191353Z AUTO 00000KT 10SM CLR 01/M01 A3044 RMK AO2 SLP324 T00111006 =
2018-04-19 07:53 METAR KMCK 191253Z AUTO 00000KT 10SM CLR M03/M04 A3042 RMK AO2 SLP317 T10281044
                 =
2018-04-19 06:53 METAR KMCK 191153Z AUTO 27003KT 10SM CLR M05/M06 A3040 RMK AO2 SLP309 T10501056
                 10033 21050 51013 =
2018-04-19 05:53 METAR KMCK 191053Z AUTO 23007KT 10SM CLR M04/M05 A3040 RMK AO2 SLP304 T10391050
                 =
2018-04-19 04:53 METAR KMCK 190953Z AUTO 33005KT 10SM CLR M03/M04 A3037 RMK AO2 SLP295 T10281039
                 =
2018-04-19 03:53 METAR KMCK 190853Z AUTO 24005KT 10SM CLR M03/M04 A3036 RMK AO2 SLP292 T10281039
                 53016 =
2018-04-19 02:53 METAR KMCK 190753Z AUTO 28004KT 10SM CLR M01/M03 A3033 RMK AO2 SLP281 T10111028
                 =
2018-04-19 01:53 METAR KMCK 190653Z AUTO 34004KT 10SM CLR M01/M03 A3032 RMK AO2 SLP277 T10111033
                 =
2018-04-19 00:53 METAR KMCK 190553Z AUTO 24006KT 10SM CLR 03/M01 A3031 RMK AO2 SLP270 T00331006
                 10139 20017 401560017 51015 =
2018-04-18 23:53 METAR KMCK 190453Z AUTO 00000KT 10SM CLR 03/M01 A3030 RMK AO2 SLP267 T00331006 =
2018-04-18 22:53 METAR KMCK 190353Z AUTO 08004KT 10SM CLR 04/M01 A3029 RMK AO2 SLP265 T00391011 =
2018-04-18 21:53 METAR KMCK 190253Z AUTO 07006KT 10SM CLR 06/M01 A3026 RMK AO2 SLP257 T00561006
                 53027 =
2018-04-18 20:53 METAR KMCK 190153Z AUTO 05007KT 10SM CLR 07/M01 A3023 RMK AO2 SLP244 T00671006 =
2018-04-18 19:53 METAR KMCK 190053Z AUTO 04012KT 10SM SCT090 12/M01 A3020 RMK AO2 SLP234
                 T01171006 =
2018-04-18 18:53 METAR KMCK 182353Z AUTO 35020G26KT 10SM BKN085 14/M02 A3018 RMK AO2 PK WND
                 36030/2307 SLP223 T01441022 10156 20122 53007 =
2018-04-18 17:53 METAR KMCK 182253Z AUTO 36022G30KT 10SM BKN085 16/M03 A3016 RMK AO2 PK WND
                 35037/2154 SLP217 T01561028 =
2018-04-18 16:53 METAR KMCK 182153Z AUTO 34023G33KT 10SM SCT080 15/M02 A3015 RMK AO2 PK WND
                 34039/2102 SLP213 T01501022 =

Support USWX by starting your Amazon purchase here.